sensor_id;sensor_type;location;lat;lon;timestamp;P1;durP1;ratioP1;P2;durP2;ratioP2
20945;SDS011;10632;51.276;7.116;2022-08-01T00:01:49;8.23;;;3.95;;
20945;SDS011;10632;51.276;7.116;2022-08-01T00:04:16;8.10;;;3.95;;
20945;SDS011;10632;51.276;7.116;2022-08-01T00:06:44;7.55;;;4.18;;
20945;SDS011;10632;51.276;7.116;2022-08-01T00:09:11;8.82;;;4.13;;
20945;SDS011;10632;51.276;7.116;2022-08-01T00:11:38;9.27;;;3.83;;
20945;SDS011;10632;51.276;7.116;2022-08-01T00:14:06;8.48;;;4.00;;
20945;SDS011;10632;51.276;7.116;2022-08-01T00:16:34;9.70;;;3.90;;
20945;SDS011;10632;51.276;7.116;2022-08-01T00:19:01;9.40;;;3.92;;
20945;SDS011;10632;51.276;7.116;2022-08-01T00:21:28;8.25;;;4.15;;
20945;SDS011;10632;51.276;7.116;2022-08-01T00:23:57;9.52;;;4.45;;
20945;SDS011;10632;51.276;7.116;2022-08-01T00:26:24;8.13;;;4.22;;
20945;SDS011;10632;51.276;7.116;2022-08-01T00:28:51;13.10;;;4.45;;
20945;SDS011;10632;51.276;7.116;2022-08-01T00:31:18;10.43;;;4.53;;
20945;SDS011;10632;51.276;7.116;2022-08-01T00:33:45;8.80;;;4.30;;
20945;SDS011;10632;51.276;7.116;2022-08-01T00:36:11;15.55;;;5.18;;
20945;SDS011;10632;51.276;7.116;2022-08-01T00:38:38;12.70;;;6.22;;
20945;SDS011;10632;51.276;7.116;2022-08-01T00:41:07;11.82;;;5.60;;
20945;SDS011;10632;51.276;7.116;2022-08-01T00:43:34;13.77;;;5.82;;
20945;SDS011;10632;51.276;7.116;2022-08-01T00:46:01;12.77;;;5.63;;
20945;SDS011;10632;51.276;7.116;2022-08-01T00:48:28;11.88;;;6.05;;
20945;SDS011;10632;51.276;7.116;2022-08-01T00:50:55;16.05;;;6.28;;
20945;SDS011;10632;51.276;7.116;2022-08-01T00:53:22;13.35;;;5.88;;
20945;SDS011;10632;51.276;7.116;2022-08-01T00:55:49;16.67;;;6.43;;
20945;SDS011;10632;51.276;7.116;2022-08-01T00:58:17;11.48;;;5.65;;
20945;SDS011;10632;51.276;7.116;2022-08-01T01:00:44;15.90;;;6.25;;
20945;SDS011;10632;51.276;7.116;2022-08-01T01:03:11;13.95;;;6.18;;
20945;SDS011;10632;51.276;7.116;2022-08-01T01:05:40;14.38;;;6.28;;
20945;SDS011;10632;51.276;7.116;2022-08-01T01:08:16;15.70;;;6.22;;
20945;SDS011;10632;51.276;7.116;2022-08-01T01:10:49;15.32;;;6.75;;
20945;SDS011;10632;51.276;7.116;2022-08-01T01:13:23;19.95;;;6.88;;
20945;SDS011;10632;51.276;7.116;2022-08-01T01:15:58;16.48;;;7.25;;
20945;SDS011;10632;51.276;7.116;2022-08-01T01:18:29;18.30;;;7.30;;
20945;SDS011;10632;51.276;7.116;2022-08-01T01:21:01;18.77;;;7.93;;
20945;SDS011;10632;51.276;7.116;2022-08-01T01:23:45;16.63;;;6.93;;
20945;SDS011;10632;51.276;7.116;2022-08-01T01:26:26;16.40;;;7.35;;
20945;SDS011;10632;51.276;7.116;2022-08-01T01:29:05;17.60;;;7.40;;
20945;SDS011;10632;51.276;7.116;2022-08-01T01:31:40;17.67;;;7.53;;
20945;SDS011;10632;51.276;7.116;2022-08-01T01:34:11;17.25;;;7.28;;
20945;SDS011;10632;51.276;7.116;2022-08-01T01:36:39;20.10;;;8.60;;
20945;SDS011;10632;51.276;7.116;2022-08-01T01:39:07;18.65;;;7.38;;
20945;SDS011;10632;51.276;7.116;2022-08-01T01:41:35;20.38;;;7.43;;
20945;SDS011;10632;51.276;7.116;2022-08-01T01:44:05;20.77;;;8.23;;
20945;SDS011;10632;51.276;7.116;2022-08-01T01:46:33;21.15;;;7.82;;
20945;SDS011;10632;51.276;7.116;2022-08-01T01:49:02;18.67;;;7.95;;
20945;SDS011;10632;51.276;7.116;2022-08-01T01:51:30;24.33;;;8.70;;
20945;SDS011;10632;51.276;7.116;2022-08-01T01:53:59;19.25;;;8.00;;
20945;SDS011;10632;51.276;7.116;2022-08-01T01:56:27;18.23;;;6.85;;
20945;SDS011;10632;51.276;7.116;2022-08-01T01:58:56;19.58;;;7.55;;
20945;SDS011;10632;51.276;7.116;2022-08-01T02:01:28;25.38;;;8.48;;
20945;SDS011;10632;51.276;7.116;2022-08-01T02:03:57;19.92;;;7.75;;
20945;SDS011;10632;51.276;7.116;2022-08-01T02:06:27;21.15;;;8.43;;
20945;SDS011;10632;51.276;7.116;2022-08-01T02:08:55;18.60;;;7.95;;
20945;SDS011;10632;51.276;7.116;2022-08-01T02:11:24;19.90;;;7.78;;
20945;SDS011;10632;51.276;7.116;2022-08-01T02:13:52;21.42;;;7.97;;
20945;SDS011;10632;51.276;7.116;2022-08-01T02:16:23;21.50;;;8.23;;
20945;SDS011;10632;51.276;7.116;2022-08-01T02:18:57;21.50;;;8.20;;
20945;SDS011;10632;51.276;7.116;2022-08-01T02:21:25;17.17;;;7.32;;
20945;SDS011;10632;51.276;7.116;2022-08-01T02:23:55;21.42;;;8.20;;
20945;SDS011;10632;51.276;7.116;2022-08-01T02:26:31;20.83;;;7.68;;
20945;SDS011;10632;51.276;7.116;2022-08-01T02:28:59;17.13;;;6.97;;
20945;SDS011;10632;51.276;7.116;2022-08-01T02:31:32;17.75;;;7.03;;
20945;SDS011;10632;51.276;7.116;2022-08-01T02:34:06;21.20;;;7.40;;
20945;SDS011;10632;51.276;7.116;2022-08-01T02:36:36;19.13;;;7.35;;
20945;SDS011;10632;51.276;7.116;2022-08-01T02:39:06;19.73;;;7.43;;
20945;SDS011;10632;51.276;7.116;2022-08-01T02:41:37;19.02;;;7.25;;
20945;SDS011;10632;51.276;7.116;2022-08-01T02:44:07;19.90;;;7.38;;
20945;SDS011;10632;51.276;7.116;2022-08-01T02:46:43;20.92;;;7.47;;
20945;SDS011;10632;51.276;7.116;2022-08-01T02:49:16;18.38;;;8.07;;
20945;SDS011;10632;51.276;7.116;2022-08-01T02:51:46;21.63;;;8.02;;
20945;SDS011;10632;51.276;7.116;2022-08-01T02:54:15;17.90;;;6.50;;
20945;SDS011;10632;51.276;7.116;2022-08-01T02:56:43;25.42;;;7.05;;
20945;SDS011;10632;51.276;7.116;2022-08-01T02:59:13;19.25;;;7.75;;
20945;SDS011;10632;51.276;7.116;2022-08-01T03:01:44;18.83;;;6.60;;
20945;SDS011;10632;51.276;7.116;2022-08-01T03:04:12;23.58;;;8.60;;
20945;SDS011;10632;51.276;7.116;2022-08-01T03:06:41;19.38;;;7.30;;
20945;SDS011;10632;51.276;7.116;2022-08-01T03:09:08;20.38;;;7.35;;
20945;SDS011;10632;51.276;7.116;2022-08-01T03:11:36;18.05;;;7.25;;
20945;SDS011;10632;51.276;7.116;2022-08-01T03:14:07;20.55;;;8.15;;
20945;SDS011;10632;51.276;7.116;2022-08-01T03:16:40;21.63;;;7.65;;
20945;SDS011;10632;51.276;7.116;2022-08-01T03:19:09;17.05;;;7.07;;
20945;SDS011;10632;51.276;7.116;2022-08-01T03:21:39;19.50;;;7.35;;
20945;SDS011;10632;51.276;7.116;2022-08-01T03:24:09;21.30;;;8.23;;
20945;SDS011;10632;51.276;7.116;2022-08-01T03:26:39;23.63;;;8.00;;
20945;SDS011;10632;51.276;7.116;2022-08-01T03:29:10;24.33;;;7.70;;
20945;SDS011;10632;51.276;7.116;2022-08-01T03:31:40;18.58;;;7.55;;
20945;SDS011;10632;51.276;7.116;2022-08-01T03:34:10;18.33;;;6.78;;
20945;SDS011;10632;51.276;7.116;2022-08-01T03:36:45;22.20;;;8.23;;
20945;SDS011;10632;51.276;7.116;2022-08-01T03:39:13;24.45;;;8.40;;
20945;SDS011;10632;51.276;7.116;2022-08-01T03:41:43;22.88;;;8.70;;
20945;SDS011;10632;51.276;7.116;2022-08-01T03:44:15;26.50;;;8.55;;
20945;SDS011;10632;51.276;7.116;2022-08-01T03:46:47;27.90;;;8.85;;
20945;SDS011;10632;51.276;7.116;2022-08-01T03:49:17;23.02;;;7.80;;
20945;SDS011;10632;51.276;7.116;2022-08-01T03:51:49;23.42;;;8.52;;
20945;SDS011;10632;51.276;7.116;2022-08-01T03:54:20;30.25;;;8.30;;
20945;SDS011;10632;51.276;7.116;2022-08-01T03:56:49;25.08;;;9.07;;
20945;SDS011;10632;51.276;7.116;2022-08-01T03:59:19;21.38;;;8.52;;
20945;SDS011;10632;51.276;7.116;2022-08-01T04:01:47;24.42;;;8.30;;
20945;SDS011;10632;51.276;7.116;2022-08-01T04:04:14;18.92;;;6.38;;
20945;SDS011;10632;51.276;7.116;2022-08-01T04:06:42;15.45;;;6.20;;
20945;SDS011;10632;51.276;7.116;2022-08-01T04:09:11;15.65;;;6.10;;
20945;SDS011;10632;51.276;7.116;2022-08-01T04:11:38;19.10;;;7.57;;
20945;SDS011;10632;51.276;7.116;2022-08-01T04:14:06;20.60;;;8.02;;
20945;SDS011;10632;51.276;7.116;2022-08-01T04:16:32;31.73;;;10.40;;
20945;SDS011;10632;51.276;7.116;2022-08-01T04:19:00;29.65;;;9.95;;
20945;SDS011;10632;51.276;7.116;2022-08-01T04:21:27;35.22;;;10.55;;
20945;SDS011;10632;51.276;7.116;2022-08-01T04:23:59;33.35;;;11.10;;
20945;SDS011;10632;51.276;7.116;2022-08-01T04:26:34;25.98;;;9.55;;
20945;SDS011;10632;51.276;7.116;2022-08-01T04:29:05;33.85;;;10.80;;
20945;SDS011;10632;51.276;7.116;2022-08-01T04:31:34;36.95;;;11.73;;
20945;SDS011;10632;51.276;7.116;2022-08-01T04:34:04;28.85;;;10.25;;
20945;SDS011;10632;51.276;7.116;2022-08-01T04:36:33;39.10;;;11.18;;
20945;SDS011;10632;51.276;7.116;2022-08-01T04:39:02;33.90;;;11.57;;
20945;SDS011;10632;51.276;7.116;2022-08-01T04:41:30;33.45;;;11.80;;
20945;SDS011;10632;51.276;7.116;2022-08-01T04:44:00;44.28;;;12.82;;
20945;SDS011;10632;51.276;7.116;2022-08-01T04:46:27;37.92;;;11.82;;
20945;SDS011;10632;51.276;7.116;2022-08-01T04:48:55;34.95;;;11.82;;
20945;SDS011;10632;51.276;7.116;2022-08-01T04:51:23;35.47;;;12.18;;
20945;SDS011;10632;51.276;7.116;2022-08-01T04:53:50;43.65;;;13.13;;
20945;SDS011;10632;51.276;7.116;2022-08-01T04:56:18;39.90;;;13.27;;
20945;SDS011;10632;51.276;7.116;2022-08-01T04:58:46;31.55;;;11.82;;
20945;SDS011;10632;51.276;7.116;2022-08-01T05:01:35;35.30;;;11.13;;
20945;SDS011;10632;51.276;7.116;2022-08-01T05:04:02;31.80;;;11.75;;
20945;SDS011;10632;51.276;7.116;2022-08-01T05:06:29;37.25;;;12.00;;
20945;SDS011;10632;51.276;7.116;2022-08-01T05:08:56;36.30;;;11.40;;
20945;SDS011;10632;51.276;7.116;2022-08-01T05:11:23;26.35;;;10.13;;
20945;SDS011;10632;51.276;7.116;2022-08-01T05:13:50;31.33;;;10.27;;
20945;SDS011;10632;51.276;7.116;2022-08-01T05:16:17;30.17;;;10.85;;
20945;SDS011;10632;51.276;7.116;2022-08-01T05:18:45;29.95;;;11.35;;
20945;SDS011;10632;51.276;7.116;2022-08-01T05:21:12;31.02;;;10.23;;
20945;SDS011;10632;51.276;7.116;2022-08-01T05:23:39;27.50;;;9.55;;
20945;SDS011;10632;51.276;7.116;2022-08-01T05:26:06;31.42;;;10.85;;
20945;SDS011;10632;51.276;7.116;2022-08-01T05:28:33;32.88;;;11.27;;
20945;SDS011;10632;51.276;7.116;2022-08-01T05:31:00;36.10;;;11.68;;
20945;SDS011;10632;51.276;7.116;2022-08-01T05:33:26;33.47;;;10.85;;
20945;SDS011;10632;51.276;7.116;2022-08-01T05:35:55;32.42;;;11.23;;
20945;SDS011;10632;51.276;7.116;2022-08-01T05:38:22;30.75;;;10.52;;
20945;SDS011;10632;51.276;7.116;2022-08-01T05:40:49;43.33;;;12.77;;
20945;SDS011;10632;51.276;7.116;2022-08-01T05:43:16;37.15;;;11.50;;
20945;SDS011;10632;51.276;7.116;2022-08-01T05:45:43;41.17;;;11.63;;
20945;SDS011;10632;51.276;7.116;2022-08-01T05:48:11;31.08;;;10.60;;
20945;SDS011;10632;51.276;7.116;2022-08-01T05:50:38;38.17;;;12.23;;
20945;SDS011;10632;51.276;7.116;2022-08-01T05:53:06;35.58;;;11.43;;
20945;SDS011;10632;51.276;7.116;2022-08-01T05:55:34;37.22;;;12.48;;
20945;SDS011;10632;51.276;7.116;2022-08-01T05:58:01;37.28;;;12.07;;
20945;SDS011;10632;51.276;7.116;2022-08-01T06:00:28;35.05;;;11.73;;
20945;SDS011;10632;51.276;7.116;2022-08-01T06:02:55;31.95;;;10.65;;
20945;SDS011;10632;51.276;7.116;2022-08-01T06:05:22;33.65;;;11.63;;
20945;SDS011;10632;51.276;7.116;2022-08-01T06:07:49;30.70;;;10.90;;
20945;SDS011;10632;51.276;7.116;2022-08-01T06:10:17;30.33;;;10.48;;
20945;SDS011;10632;51.276;7.116;2022-08-01T06:12:44;27.08;;;10.00;;
20945;SDS011;10632;51.276;7.116;2022-08-01T06:15:11;26.98;;;10.20;;
20945;SDS011;10632;51.276;7.116;2022-08-01T06:17:38;32.83;;;11.32;;
20945;SDS011;10632;51.276;7.116;2022-08-01T06:20:06;27.30;;;10.10;;
20945;SDS011;10632;51.276;7.116;2022-08-01T06:22:34;28.27;;;9.85;;
20945;SDS011;10632;51.276;7.116;2022-08-01T06:25:01;29.23;;;11.02;;
20945;SDS011;10632;51.276;7.116;2022-08-01T06:27:30;32.47;;;10.23;;
20945;SDS011;10632;51.276;7.116;2022-08-01T06:29:59;28.45;;;9.95;;
20945;SDS011;10632;51.276;7.116;2022-08-01T06:32:27;27.50;;;10.55;;
20945;SDS011;10632;51.276;7.116;2022-08-01T06:34:54;27.73;;;10.48;;
20945;SDS011;10632;51.276;7.116;2022-08-01T06:37:21;27.85;;;9.68;;
20945;SDS011;10632;51.276;7.116;2022-08-01T06:39:48;19.63;;;7.80;;
20945;SDS011;10632;51.276;7.116;2022-08-01T06:42:16;20.30;;;8.15;;
20945;SDS011;10632;51.276;7.116;2022-08-01T06:44:44;26.35;;;8.68;;
20945;SDS011;10632;51.276;7.116;2022-08-01T06:47:11;24.23;;;8.25;;
20945;SDS011;10632;51.276;7.116;2022-08-01T06:49:38;21.38;;;8.35;;
20945;SDS011;10632;51.276;7.116;2022-08-01T06:52:05;24.30;;;7.72;;
20945;SDS011;10632;51.276;7.116;2022-08-01T06:54:32;20.90;;;7.65;;
20945;SDS011;10632;51.276;7.116;2022-08-01T06:56:59;18.50;;;6.97;;
20945;SDS011;10632;51.276;7.116;2022-08-01T06:59:26;22.52;;;7.35;;
20945;SDS011;10632;51.276;7.116;2022-08-01T07:01:55;19.13;;;7.13;;
20945;SDS011;10632;51.276;7.116;2022-08-01T07:04:22;17.88;;;7.43;;
20945;SDS011;10632;51.276;7.116;2022-08-01T07:06:52;18.42;;;7.20;;
20945;SDS011;10632;51.276;7.116;2022-08-01T07:09:18;18.45;;;6.88;;
20945;SDS011;10632;51.276;7.116;2022-08-01T07:11:46;18.40;;;7.28;;
20945;SDS011;10632;51.276;7.116;2022-08-01T07:14:12;17.75;;;7.05;;
20945;SDS011;10632;51.276;7.116;2022-08-01T07:16:42;17.13;;;6.18;;
20945;SDS011;10632;51.276;7.116;2022-08-01T07:19:11;21.33;;;6.75;;
20945;SDS011;10632;51.276;7.116;2022-08-01T07:21:38;17.60;;;6.72;;
20945;SDS011;10632;51.276;7.116;2022-08-01T07:24:06;17.50;;;7.13;;
20945;SDS011;10632;51.276;7.116;2022-08-01T07:26:34;19.25;;;6.75;;
20945;SDS011;10632;51.276;7.116;2022-08-01T07:29:00;15.52;;;5.75;;
20945;SDS011;10632;51.276;7.116;2022-08-01T07:31:28;14.68;;;6.13;;
20945;SDS011;10632;51.276;7.116;2022-08-01T07:33:56;13.52;;;5.88;;
20945;SDS011;10632;51.276;7.116;2022-08-01T07:36:24;15.98;;;6.00;;
20945;SDS011;10632;51.276;7.116;2022-08-01T07:38:51;14.38;;;5.47;;
20945;SDS011;10632;51.276;7.116;2022-08-01T07:41:18;14.70;;;5.63;;
20945;SDS011;10632;51.276;7.116;2022-08-01T07:43:45;12.55;;;5.03;;
20945;SDS011;10632;51.276;7.116;2022-08-01T07:46:16;9.48;;;3.92;;
20945;SDS011;10632;51.276;7.116;2022-08-01T07:48:44;9.45;;;3.78;;
20945;SDS011;10632;51.276;7.116;2022-08-01T07:51:11;9.75;;;3.95;;
20945;SDS011;10632;51.276;7.116;2022-08-01T07:53:40;12.75;;;3.90;;
20945;SDS011;10632;51.276;7.116;2022-08-01T07:56:07;9.07;;;3.88;;
20945;SDS011;10632;51.276;7.116;2022-08-01T07:58:37;7.30;;;3.00;;
20945;SDS011;10632;51.276;7.116;2022-08-01T08:01:04;8.63;;;3.25;;
20945;SDS011;10632;51.276;7.116;2022-08-01T08:03:31;9.20;;;3.15;;
20945;SDS011;10632;51.276;7.116;2022-08-01T08:05:58;6.50;;;2.90;;
20945;SDS011;10632;51.276;7.116;2022-08-01T08:08:26;7.30;;;3.20;;
20945;SDS011;10632;51.276;7.116;2022-08-01T08:10:54;8.27;;;3.00;;
20945;SDS011;10632;51.276;7.116;2022-08-01T08:13:21;6.65;;;3.03;;
20945;SDS011;10632;51.276;7.116;2022-08-01T08:15:48;7.05;;;2.70;;
20945;SDS011;10632;51.276;7.116;2022-08-01T08:18:15;8.75;;;2.92;;
20945;SDS011;10632;51.276;7.116;2022-08-01T08:20:42;4.78;;;2.47;;
20945;SDS011;10632;51.276;7.116;2022-08-01T08:23:10;7.15;;;2.78;;
20945;SDS011;10632;51.276;7.116;2022-08-01T08:25:50;6.32;;;2.63;;
20945;SDS011;10632;51.276;7.116;2022-08-01T08:28:19;7.05;;;3.00;;
20945;SDS011;10632;51.276;7.116;2022-08-01T08:30:46;7.43;;;2.78;;
20945;SDS011;10632;51.276;7.116;2022-08-01T08:33:13;5.97;;;2.67;;
20945;SDS011;10632;51.276;7.116;2022-08-01T08:35:40;7.45;;;3.00;;
20945;SDS011;10632;51.276;7.116;2022-08-01T08:38:07;5.65;;;2.53;;
20945;SDS011;10632;51.276;7.116;2022-08-01T08:40:35;5.45;;;2.42;;
20945;SDS011;10632;51.276;7.116;2022-08-01T08:43:03;6.35;;;2.67;;
20945;SDS011;10632;51.276;7.116;2022-08-01T08:45:32;5.97;;;3.03;;
20945;SDS011;10632;51.276;7.116;2022-08-01T08:47:59;7.15;;;3.28;;
20945;SDS011;10632;51.276;7.116;2022-08-01T08:50:28;8.40;;;3.88;;
20945;SDS011;10632;51.276;7.116;2022-08-01T08:52:55;9.93;;;4.15;;
20945;SDS011;10632;51.276;7.116;2022-08-01T08:55:22;7.72;;;3.75;;
20945;SDS011;10632;51.276;7.116;2022-08-01T08:57:50;7.18;;;3.58;;
20945;SDS011;10632;51.276;7.116;2022-08-01T09:00:18;8.02;;;4.05;;
20945;SDS011;10632;51.276;7.116;2022-08-01T09:02:47;9.82;;;4.10;;
20945;SDS011;10632;51.276;7.116;2022-08-01T09:05:17;8.65;;;4.35;;
20945;SDS011;10632;51.276;7.116;2022-08-01T09:07:50;10.43;;;4.30;;
20945;SDS011;10632;51.276;7.116;2022-08-01T09:10:17;8.43;;;4.55;;
20945;SDS011;10632;51.276;7.116;2022-08-01T09:13:03;10.02;;;4.80;;
20945;SDS011;10632;51.276;7.116;2022-08-01T09:15:42;9.35;;;4.78;;
20945;SDS011;10632;51.276;7.116;2022-08-01T09:18:28;10.18;;;4.80;;
20945;SDS011;10632;51.276;7.116;2022-08-01T09:21:07;10.35;;;5.10;;
20945;SDS011;10632;51.276;7.116;2022-08-01T09:23:37;10.63;;;5.15;;
20945;SDS011;10632;51.276;7.116;2022-08-01T09:26:07;9.13;;;5.00;;
20945;SDS011;10632;51.276;7.116;2022-08-01T09:28:34;9.70;;;4.75;;
20945;SDS011;10632;51.276;7.116;2022-08-01T09:31:05;9.13;;;4.75;;
20945;SDS011;10632;51.276;7.116;2022-08-01T09:33:47;9.52;;;4.85;;
20945;SDS011;10632;51.276;7.116;2022-08-01T09:36:15;8.40;;;5.03;;
20945;SDS011;10632;51.276;7.116;2022-08-01T09:38:42;8.65;;;4.85;;
20945;SDS011;10632;51.276;7.116;2022-08-01T09:41:09;9.43;;;4.63;;
20945;SDS011;10632;51.276;7.116;2022-08-01T09:43:37;9.05;;;4.40;;
20945;SDS011;10632;51.276;7.116;2022-08-01T09:46:05;9.50;;;3.90;;
20945;SDS011;10632;51.276;7.116;2022-08-01T09:48:36;7.68;;;3.53;;
20945;SDS011;10632;51.276;7.116;2022-08-01T09:51:06;8.25;;;3.80;;
20945;SDS011;10632;51.276;7.116;2022-08-01T09:53:40;10.43;;;4.38;;
20945;SDS011;10632;51.276;7.116;2022-08-01T09:56:09;9.70;;;4.60;;
20945;SDS011;10632;51.276;7.116;2022-08-01T09:58:50;8.70;;;4.00;;
20945;SDS011;10632;51.276;7.116;2022-08-01T10:01:19;7.55;;;3.58;;
20945;SDS011;10632;51.276;7.116;2022-08-01T10:03:47;7.65;;;3.47;;
20945;SDS011;10632;51.276;7.116;2022-08-01T10:06:31;8.65;;;3.88;;
20945;SDS011;10632;51.276;7.116;2022-08-01T10:08:58;10.00;;;4.15;;
20945;SDS011;10632;51.276;7.116;2022-08-01T10:11:25;8.23;;;3.88;;
20945;SDS011;10632;51.276;7.116;2022-08-01T10:13:54;8.23;;;4.75;;
20945;SDS011;10632;51.276;7.116;2022-08-01T10:16:25;8.60;;;4.80;;
20945;SDS011;10632;51.276;7.116;2022-08-01T10:18:54;10.38;;;5.18;;
20945;SDS011;10632;51.276;7.116;2022-08-01T10:21:23;10.23;;;5.07;;
20945;SDS011;10632;51.276;7.116;2022-08-01T10:23:54;9.32;;;4.70;;
20945;SDS011;10632;51.276;7.116;2022-08-01T10:26:22;8.20;;;4.30;;
20945;SDS011;10632;51.276;7.116;2022-08-01T10:28:52;8.75;;;4.60;;
20945;SDS011;10632;51.276;7.116;2022-08-01T10:31:21;11.75;;;4.85;;
20945;SDS011;10632;51.276;7.116;2022-08-01T10:33:49;9.60;;;4.40;;
20945;SDS011;10632;51.276;7.116;2022-08-01T10:36:17;8.02;;;3.78;;
20945;SDS011;10632;51.276;7.116;2022-08-01T10:38:46;8.02;;;3.40;;
20945;SDS011;10632;51.276;7.116;2022-08-01T10:41:14;6.60;;;2.97;;
20945;SDS011;10632;51.276;7.116;2022-08-01T10:43:44;6.97;;;3.67;;
20945;SDS011;10632;51.276;7.116;2022-08-01T10:46:12;6.68;;;3.15;;
20945;SDS011;10632;51.276;7.116;2022-08-01T10:48:41;5.75;;;2.92;;
20945;SDS011;10632;51.276;7.116;2022-08-01T10:51:13;4.28;;;2.55;;
20945;SDS011;10632;51.276;7.116;2022-08-01T10:53:45;4.93;;;2.42;;
20945;SDS011;10632;51.276;7.116;2022-08-01T10:56:15;5.47;;;2.30;;
20945;SDS011;10632;51.276;7.116;2022-08-01T10:58:42;5.68;;;3.03;;
20945;SDS011;10632;51.276;7.116;2022-08-01T11:01:15;7.25;;;2.80;;
20945;SDS011;10632;51.276;7.116;2022-08-01T11:03:57;9.35;;;2.97;;
20945;SDS011;10632;51.276;7.116;2022-08-01T11:06:33;6.13;;;3.00;;
20945;SDS011;10632;51.276;7.116;2022-08-01T11:09:17;7.60;;;3.83;;
20945;SDS011;10632;51.276;7.116;2022-08-01T11:12:02;6.22;;;3.85;;
20945;SDS011;10632;51.276;7.116;2022-08-01T11:14:32;5.85;;;3.13;;
20945;SDS011;10632;51.276;7.116;2022-08-01T11:20:06;6.10;;;3.42;;
20945;SDS011;10632;51.276;7.116;2022-08-01T11:31:42;5.75;;;2.75;;
20945;SDS011;10632;51.276;7.116;2022-08-01T11:34:08;4.90;;;2.65;;
20945;SDS011;10632;51.276;7.116;2022-08-01T11:36:35;4.72;;;2.63;;
20945;SDS011;10632;51.276;7.116;2022-08-01T11:39:12;5.55;;;2.60;;
20945;SDS011;10632;51.276;7.116;2022-08-01T11:41:41;3.88;;;2.55;;
20945;SDS011;10632;51.276;7.116;2022-08-01T11:44:11;3.83;;;2.50;;
20945;SDS011;10632;51.276;7.116;2022-08-01T11:49:43;4.60;;;2.20;;
20945;SDS011;10632;51.276;7.116;2022-08-01T11:52:15;4.05;;;2.25;;
20945;SDS011;10632;51.276;7.116;2022-08-01T11:54:43;4.47;;;2.17;;
20945;SDS011;10632;51.276;7.116;2022-08-01T11:57:11;3.85;;;2.30;;
20945;SDS011;10632;51.276;7.116;2022-08-01T11:59:40;3.67;;;2.40;;
20945;SDS011;10632;51.276;7.116;2022-08-01T12:02:22;3.83;;;2.25;;
20945;SDS011;10632;51.276;7.116;2022-08-01T12:04:52;4.25;;;2.40;;
20945;SDS011;10632;51.276;7.116;2022-08-01T12:07:21;2.95;;;1.83;;
20945;SDS011;10632;51.276;7.116;2022-08-01T12:09:56;4.18;;;2.25;;
20945;SDS011;10632;51.276;7.116;2022-08-01T12:12:26;3.40;;;2.13;;
20945;SDS011;10632;51.276;7.116;2022-08-01T12:14:54;3.67;;;2.20;;
20945;SDS011;10632;51.276;7.116;2022-08-01T12:17:31;3.85;;;2.00;;
20945;SDS011;10632;51.276;7.116;2022-08-01T12:20:00;3.78;;;1.70;;
20945;SDS011;10632;51.276;7.116;2022-08-01T12:22:27;3.15;;;1.58;;
20945;SDS011;10632;51.276;7.116;2022-08-01T12:24:54;3.05;;;1.55;;
20945;SDS011;10632;51.276;7.116;2022-08-01T12:27:26;3.85;;;1.70;;
20945;SDS011;10632;51.276;7.116;2022-08-01T12:29:54;2.35;;;1.50;;
20945;SDS011;10632;51.276;7.116;2022-08-01T12:32:24;2.30;;;1.45;;
20945;SDS011;10632;51.276;7.116;2022-08-01T12:34:54;3.78;;;1.50;;
20945;SDS011;10632;51.276;7.116;2022-08-01T12:37:21;4.85;;;1.60;;
20945;SDS011;10632;51.276;7.116;2022-08-01T12:39:49;5.57;;;1.73;;
20945;SDS011;10632;51.276;7.116;2022-08-01T12:42:16;2.97;;;1.88;;
20945;SDS011;10632;51.276;7.116;2022-08-01T12:44:45;3.05;;;1.75;;
20945;SDS011;10632;51.276;7.116;2022-08-01T12:47:15;4.78;;;2.03;;
20945;SDS011;10632;51.276;7.116;2022-08-01T12:49:43;3.30;;;2.00;;
20945;SDS011;10632;51.276;7.116;2022-08-01T12:52:14;3.90;;;1.90;;
20945;SDS011;10632;51.276;7.116;2022-08-01T12:55:02;4.07;;;2.10;;
20945;SDS011;10632;51.276;7.116;2022-08-01T12:57:37;3.10;;;2.05;;
20945;SDS011;10632;51.276;7.116;2022-08-01T13:00:06;3.75;;;2.03;;
20945;SDS011;10632;51.276;7.116;2022-08-01T13:02:39;3.47;;;2.10;;
20945;SDS011;10632;51.276;7.116;2022-08-01T13:05:07;3.45;;;2.10;;
20945;SDS011;10632;51.276;7.116;2022-08-01T13:07:40;3.42;;;2.10;;
20945;SDS011;10632;51.276;7.116;2022-08-01T13:10:09;4.57;;;2.00;;
20945;SDS011;10632;51.276;7.116;2022-08-01T13:12:38;3.85;;;2.20;;
20945;SDS011;10632;51.276;7.116;2022-08-01T13:15:19;5.57;;;2.13;;
20945;SDS011;10632;51.276;7.116;2022-08-01T13:17:49;2.97;;;1.95;;
20945;SDS011;10632;51.276;7.116;2022-08-01T13:20:23;4.30;;;2.30;;
20945;SDS011;10632;51.276;7.116;2022-08-01T13:22:52;3.90;;;2.50;;
20945;SDS011;10632;51.276;7.116;2022-08-01T13:25:19;5.18;;;2.47;;
20945;SDS011;10632;51.276;7.116;2022-08-01T13:27:46;4.38;;;2.50;;
20945;SDS011;10632;51.276;7.116;2022-08-01T13:30:13;3.63;;;2.33;;
20945;SDS011;10632;51.276;7.116;2022-08-01T13:32:56;3.53;;;2.10;;
20945;SDS011;10632;51.276;7.116;2022-08-01T13:35:34;3.45;;;2.20;;
20945;SDS011;10632;51.276;7.116;2022-08-01T13:38:10;3.38;;;2.10;;
20945;SDS011;10632;51.276;7.116;2022-08-01T13:40:37;3.97;;;2.15;;
20945;SDS011;10632;51.276;7.116;2022-08-01T13:43:04;5.10;;;2.30;;
20945;SDS011;10632;51.276;7.116;2022-08-01T13:45:37;3.72;;;2.30;;
20945;SDS011;10632;51.276;7.116;2022-08-01T13:48:05;3.78;;;2.10;;
20945;SDS011;10632;51.276;7.116;2022-08-01T13:50:32;3.85;;;2.50;;
20945;SDS011;10632;51.276;7.116;2022-08-01T13:52:59;3.70;;;2.30;;
20945;SDS011;10632;51.276;7.116;2022-08-01T13:55:27;5.85;;;2.40;;
20945;SDS011;10632;51.276;7.116;2022-08-01T13:57:57;3.22;;;2.00;;
20945;SDS011;10632;51.276;7.116;2022-08-01T14:00:24;3.53;;;2.45;;
20945;SDS011;10632;51.276;7.116;2022-08-01T14:02:51;4.38;;;2.30;;
20945;SDS011;10632;51.276;7.116;2022-08-01T14:05:17;3.67;;;2.10;;
20945;SDS011;10632;51.276;7.116;2022-08-01T14:07:48;3.50;;;2.20;;
20945;SDS011;10632;51.276;7.116;2022-08-01T14:10:15;3.45;;;2.08;;
20945;SDS011;10632;51.276;7.116;2022-08-01T14:12:44;3.75;;;2.40;;
20945;SDS011;10632;51.276;7.116;2022-08-01T14:15:11;3.63;;;2.42;;
20945;SDS011;10632;51.276;7.116;2022-08-01T14:17:38;4.60;;;2.15;;
20945;SDS011;10632;51.276;7.116;2022-08-01T14:20:07;4.25;;;2.20;;
20945;SDS011;10632;51.276;7.116;2022-08-01T14:22:37;4.45;;;2.25;;
20945;SDS011;10632;51.276;7.116;2022-08-01T14:25:09;3.40;;;1.85;;
20945;SDS011;10632;51.276;7.116;2022-08-01T14:27:36;2.75;;;1.90;;
20945;SDS011;10632;51.276;7.116;2022-08-01T14:30:08;2.78;;;1.80;;
20945;SDS011;10632;51.276;7.116;2022-08-01T14:32:38;3.50;;;1.90;;
20945;SDS011;10632;51.276;7.116;2022-08-01T14:35:08;3.90;;;1.90;;
20945;SDS011;10632;51.276;7.116;2022-08-01T14:37:42;3.17;;;1.90;;
20945;SDS011;10632;51.276;7.116;2022-08-01T14:40:09;2.78;;;1.85;;
20945;SDS011;10632;51.276;7.116;2022-08-01T14:42:37;3.38;;;2.10;;
20945;SDS011;10632;51.276;7.116;2022-08-01T14:45:13;2.80;;;1.90;;
20945;SDS011;10632;51.276;7.116;2022-08-01T14:47:41;5.57;;;2.60;;
20945;SDS011;10632;51.276;7.116;2022-08-01T14:50:09;3.83;;;2.30;;
20945;SDS011;10632;51.276;7.116;2022-08-01T14:52:41;4.05;;;2.22;;
20945;SDS011;10632;51.276;7.116;2022-08-01T14:55:09;3.90;;;2.00;;
20945;SDS011;10632;51.276;7.116;2022-08-01T14:57:43;3.83;;;2.30;;
20945;SDS011;10632;51.276;7.116;2022-08-01T15:00:10;2.85;;;1.70;;
20945;SDS011;10632;51.276;7.116;2022-08-01T15:02:49;3.50;;;2.10;;
20945;SDS011;10632;51.276;7.116;2022-08-01T15:05:19;3.88;;;2.00;;
20945;SDS011;10632;51.276;7.116;2022-08-01T15:07:47;3.92;;;1.92;;